• pl
  • eng

Awiacja
WIADOMOŚCI
ostatnia aktualizacja: 17.04.2020 19:04
Szanowni Państwo,

mając na uwadze sytuację związaną z pandemią wywołaną koronawirusem SARS-Cov-2 oraz w trosce o bezpieczeństwo Państwa oraz naszych pracowników, IMGW-PIB podjął decyzję o przeniesieniu kolejnej edycji Szkoły Meteorologii Lotniczej na przyszły rok. W tej chwili podanie dokładnego terminu szkoły nie jest możliwe, ale jak tylko będzie znany zostanie ogłoszony na naszych stronach internetowych, do których śledzenia serdecznie zapraszamy.

Kliknij na pogrubioną czerwoną nazwę, aby odkodować depeszę. 22:01 29.05.2020
  • WIND
  • SIGNIFICANT EURO
  • SIGNIFICANT
  • SIGMET
  • AIRMET
  • TAF FC
  • TAF FT
  • METAR GG30
  • METAR GG00


METAR EPBY 292000Z 03008KT CAVOK 11/00 Q1025=

METAR EPGD 292000Z 34007KT CAVOK 08/05 Q1026 =

METAR EPKK 292000Z 32008KT CAVOK 12/02 Q1020 =

METAR EPKT 292000Z 34007KT CAVOK 11/01 Q1021 =

METAR EPLB 292000Z 33008KT CAVOK 13/06 Q1018 =

METAR EPLL 292000Z 34007KT 310V010 CAVOK 11/02 Q1022 =

METAR EPMO 292000Z 33007KT CAVOK 13/05 Q1021 =

METAR EPPO 292000Z 03005KT CAVOK 11/02 Q1024 =

METAR EPRA 292000Z NIL=

METAR EPRZ 292000Z 32008KT CAVOK 13/04 Q1018 =

METAR EPSC 292000Z 33004KT CAVOK 11/03 Q1027 =

METAR EPSY 292000Z NIL=

METAR EPWA 292000Z 36011KT CAVOK 15/05 Q1020 NOSIG=

METAR EPWR 292000Z 02006KT CAVOK 13/03 Q1024 =

METAR EPZG 292000Z 03005KT CAVOK 15/05 Q1025 =
 METAR EPWR
Lokalizacja:EPWR Wrocław Strachowice
Czas:20:00 UTC
Średni kierunek wiatru:20 °
Średnia prędkość wiatru:6 węzłów
CAVOK:Widzialność 10 km i więcej, zjawisko: NIL, zachmurzenie: NSC
Temperatura powietrza:13 °C
Temperatura punktu rosy:3 °C
Ciśnienie QNH:1024 hPa
Awiacja.imgw.pl jest pogodowym serwisem informacyjnym
Instytutu Meteorologii i Gospodarki Wodnej Państwowego Instytutu Badawczego.
Copyright IMGW PIB 2009-2019© Wszelkie prawa zastrzeżone.